Aviation Digital Data Service (ADDS)

Output produced by TAFs form (0031 UTC 24 May 2017)
found at http://aviationweather.gov/adds/tafs/
 
KRIL 232327Z 2400/2424 27010G15KT P6SM FEW250 
     FM240300 VRB03KT P6SM FEW250 
     FM241800 27008KT P6SM FEW250 
     FM242000 26012G20KT P6SM FEW250